sensor_id;sensor_type;location;lat;lon;timestamp;P1;durP1;ratioP1;P2;durP2;ratioP2
8556;SDS011;4316;53.840;10.762;2023-06-22T00:01:52;7.65;;;3.28;;
8556;SDS011;4316;53.840;10.762;2023-06-22T00:04:17;3.67;;;2.83;;
8556;SDS011;4316;53.840;10.762;2023-06-22T00:06:43;7.32;;;2.97;;
8556;SDS011;4316;53.840;10.762;2023-06-22T00:09:08;4.85;;;2.83;;
8556;SDS011;4316;53.840;10.762;2023-06-22T00:11:35;3.33;;;2.63;;
8556;SDS011;4316;53.840;10.762;2023-06-22T00:14:01;2.58;;;2.38;;
8556;SDS011;4316;53.840;10.762;2023-06-22T00:16:27;3.75;;;2.75;;
8556;SDS011;4316;53.840;10.762;2023-06-22T00:18:53;2.95;;;2.60;;
8556;SDS011;4316;53.840;10.762;2023-06-22T00:21:18;2.83;;;2.50;;
8556;SDS011;4316;53.840;10.762;2023-06-22T00:23:45;4.53;;;3.00;;
8556;SDS011;4316;53.840;10.762;2023-06-22T00:26:12;2.75;;;2.50;;
8556;SDS011;4316;53.840;10.762;2023-06-22T00:28:38;2.67;;;2.40;;
8556;SDS011;4316;53.840;10.762;2023-06-22T00:31:04;2.78;;;2.35;;
8556;SDS011;4316;53.840;10.762;2023-06-22T00:33:29;2.25;;;2.15;;
8556;SDS011;4316;53.840;10.762;2023-06-22T00:35:55;3.60;;;2.50;;
8556;SDS011;4316;53.840;10.762;2023-06-22T00:38:20;4.50;;;2.70;;
8556;SDS011;4316;53.840;10.762;2023-06-22T00:40:46;2.45;;;2.25;;
8556;SDS011;4316;53.840;10.762;2023-06-22T00:43:13;5.40;;;2.35;;
8556;SDS011;4316;53.840;10.762;2023-06-22T00:45:38;2.80;;;2.60;;
8556;SDS011;4316;53.840;10.762;2023-06-22T00:48:04;3.25;;;2.72;;
8556;SDS011;4316;53.840;10.762;2023-06-22T00:50:31;2.63;;;2.20;;
8556;SDS011;4316;53.840;10.762;2023-06-22T00:53:09;3.20;;;2.42;;
8556;SDS011;4316;53.840;10.762;2023-06-22T00:55:38;3.17;;;2.80;;
8556;SDS011;4316;53.840;10.762;2023-06-22T00:58:16;2.25;;;2.15;;
8556;SDS011;4316;53.840;10.762;2023-06-22T01:00:42;3.28;;;2.85;;
8556;SDS011;4316;53.840;10.762;2023-06-22T01:03:08;8.35;;;2.67;;
8556;SDS011;4316;53.840;10.762;2023-06-22T01:05:33;2.58;;;2.38;;
8556;SDS011;4316;53.840;10.762;2023-06-22T01:10:46;2.67;;;2.47;;
8556;SDS011;4316;53.840;10.762;2023-06-22T01:13:29;4.53;;;2.75;;
8556;SDS011;4316;53.840;10.762;2023-06-22T01:16:49;3.40;;;2.70;;
8556;SDS011;4316;53.840;10.762;2023-06-22T01:18:55;4.85;;;2.80;;
8556;SDS011;4316;53.840;10.762;2023-06-22T01:21:28;3.35;;;2.22;;
8556;SDS011;4316;53.840;10.762;2023-06-22T01:26:42;2.60;;;2.40;;
8556;SDS011;4316;53.840;10.762;2023-06-22T01:29:27;4.05;;;2.83;;
8556;SDS011;4316;53.840;10.762;2023-06-22T01:31:54;2.72;;;2.53;;
8556;SDS011;4316;53.840;10.762;2023-06-22T01:34:22;2.53;;;2.30;;
8556;SDS011;4316;53.840;10.762;2023-06-22T01:36:49;2.90;;;2.50;;
8556;SDS011;4316;53.840;10.762;2023-06-22T01:39:16;2.08;;;1.98;;
8556;SDS011;4316;53.840;10.762;2023-06-22T01:41:43;2.40;;;2.30;;
8556;SDS011;4316;53.840;10.762;2023-06-22T01:44:09;3.97;;;2.75;;
8556;SDS011;4316;53.840;10.762;2023-06-22T01:46:36;3.03;;;2.83;;
8556;SDS011;4316;53.840;10.762;2023-06-22T01:49:03;2.67;;;2.47;;
8556;SDS011;4316;53.840;10.762;2023-06-22T01:51:30;2.70;;;2.50;;
8556;SDS011;4316;53.840;10.762;2023-06-22T01:53:58;2.85;;;2.65;;
8556;SDS011;4316;53.840;10.762;2023-06-22T01:56:24;2.33;;;2.22;;
8556;SDS011;4316;53.840;10.762;2023-06-22T01:58:57;2.60;;;2.40;;
8556;SDS011;4316;53.840;10.762;2023-06-22T02:01:51;2.60;;;2.40;;
8556;SDS011;4316;53.840;10.762;2023-06-22T02:04:49;4.95;;;2.63;;
8556;SDS011;4316;53.840;10.762;2023-06-22T02:07:17;3.60;;;2.80;;
8556;SDS011;4316;53.840;10.762;2023-06-22T02:09:46;3.28;;;2.45;;
8556;SDS011;4316;53.840;10.762;2023-06-22T02:12:16;3.20;;;2.55;;
8556;SDS011;4316;53.840;10.762;2023-06-22T02:14:46;2.92;;;2.55;;
8556;SDS011;4316;53.840;10.762;2023-06-22T02:17:12;2.95;;;2.40;;
8556;SDS011;4316;53.840;10.762;2023-06-22T02:19:42;3.40;;;2.80;;
8556;SDS011;4316;53.840;10.762;2023-06-22T02:22:07;6.20;;;3.03;;
8556;SDS011;4316;53.840;10.762;2023-06-22T02:24:33;5.60;;;2.90;;
8556;SDS011;4316;53.840;10.762;2023-06-22T02:26:59;3.43;;;2.87;;
8556;SDS011;4316;53.840;10.762;2023-06-22T02:29:27;4.10;;;2.95;;
8556;SDS011;4316;53.840;10.762;2023-06-22T02:31:53;6.30;;;2.57;;
8556;SDS011;4316;53.840;10.762;2023-06-22T02:34:19;3.08;;;2.88;;
8556;SDS011;4316;53.840;10.762;2023-06-22T02:36:46;3.30;;;2.90;;
8556;SDS011;4316;53.840;10.762;2023-06-22T02:39:22;4.47;;;2.78;;
8556;SDS011;4316;53.840;10.762;2023-06-22T02:41:49;3.33;;;2.40;;
8556;SDS011;4316;53.840;10.762;2023-06-22T02:44:16;3.80;;;2.63;;
8556;SDS011;4316;53.840;10.762;2023-06-22T02:46:42;2.27;;;2.17;;
8556;SDS011;4316;53.840;10.762;2023-06-22T02:49:07;3.17;;;2.87;;
8556;SDS011;4316;53.840;10.762;2023-06-22T02:51:33;3.42;;;2.30;;
8556;SDS011;4316;53.840;10.762;2023-06-22T02:54:00;2.83;;;2.63;;
8556;SDS011;4316;53.840;10.762;2023-06-22T02:56:28;3.30;;;2.30;;
8556;SDS011;4316;53.840;10.762;2023-06-22T02:58:57;3.00;;;2.70;;
8556;SDS011;4316;53.840;10.762;2023-06-22T03:01:26;2.23;;;2.10;;
8556;SDS011;4316;53.840;10.762;2023-06-22T03:03:53;2.50;;;2.33;;
8556;SDS011;4316;53.840;10.762;2023-06-22T03:06:19;2.67;;;2.47;;
8556;SDS011;4316;53.840;10.762;2023-06-22T03:08:51;4.87;;;2.53;;
8556;SDS011;4316;53.840;10.762;2023-06-22T03:11:17;3.92;;;2.65;;
8556;SDS011;4316;53.840;10.762;2023-06-22T03:13:43;2.60;;;2.40;;
8556;SDS011;4316;53.840;10.762;2023-06-22T03:16:09;2.63;;;2.40;;
8556;SDS011;4316;53.840;10.762;2023-06-22T03:18:36;4.67;;;3.03;;
8556;SDS011;4316;53.840;10.762;2023-06-22T03:21:01;2.73;;;2.53;;
8556;SDS011;4316;53.840;10.762;2023-06-22T03:23:27;2.50;;;2.30;;
8556;SDS011;4316;53.840;10.762;2023-06-22T03:25:54;3.27;;;2.50;;
8556;SDS011;4316;53.840;10.762;2023-06-22T03:28:21;2.40;;;2.30;;
8556;SDS011;4316;53.840;10.762;2023-06-22T03:30:46;2.50;;;2.30;;
8556;SDS011;4316;53.840;10.762;2023-06-22T03:33:12;4.57;;;2.10;;
8556;SDS011;4316;53.840;10.762;2023-06-22T03:35:38;6.53;;;2.20;;
8556;SDS011;4316;53.840;10.762;2023-06-22T03:38:04;2.90;;;2.43;;
8556;SDS011;4316;53.840;10.762;2023-06-22T03:40:30;4.97;;;2.30;;
8556;SDS011;4316;53.840;10.762;2023-06-22T03:42:55;5.33;;;2.40;;
8556;SDS011;4316;53.840;10.762;2023-06-22T03:45:21;2.67;;;2.47;;
8556;SDS011;4316;53.840;10.762;2023-06-22T03:47:46;2.27;;;2.17;;
8556;SDS011;4316;53.840;10.762;2023-06-22T03:50:12;7.15;;;2.30;;
8556;SDS011;4316;53.840;10.762;2023-06-22T03:52:39;2.27;;;2.17;;
8556;SDS011;4316;53.840;10.762;2023-06-22T03:55:05;3.00;;;2.70;;
8556;SDS011;4316;53.840;10.762;2023-06-22T03:57:32;7.13;;;2.60;;
8556;SDS011;4316;53.840;10.762;2023-06-22T03:59:57;2.70;;;2.50;;
8556;SDS011;4316;53.840;10.762;2023-06-22T04:02:23;7.10;;;2.70;;
8556;SDS011;4316;53.840;10.762;2023-06-22T04:04:49;3.37;;;2.80;;
8556;SDS011;4316;53.840;10.762;2023-06-22T04:07:15;2.50;;;2.30;;
8556;SDS011;4316;53.840;10.762;2023-06-22T04:09:41;2.93;;;2.60;;
8556;SDS011;4316;53.840;10.762;2023-06-22T04:12:06;2.73;;;2.50;;
8556;SDS011;4316;53.840;10.762;2023-06-22T04:14:32;5.83;;;2.73;;
8556;SDS011;4316;53.840;10.762;2023-06-22T04:16:58;2.83;;;2.57;;
8556;SDS011;4316;53.840;10.762;2023-06-22T04:19:23;8.83;;;2.20;;
8556;SDS011;4316;53.840;10.762;2023-06-22T04:21:49;2.33;;;2.13;;
8556;SDS011;4316;53.840;10.762;2023-06-22T04:24:15;2.90;;;2.30;;
8556;SDS011;4316;53.840;10.762;2023-06-22T04:26:40;5.67;;;2.80;;
8556;SDS011;4316;53.840;10.762;2023-06-22T04:29:10;3.50;;;2.53;;
8556;SDS011;4316;53.840;10.762;2023-06-22T04:31:36;4.00;;;3.13;;
8556;SDS011;4316;53.840;10.762;2023-06-22T04:34:03;3.13;;;2.80;;
8556;SDS011;4316;53.840;10.762;2023-06-22T04:36:35;3.10;;;2.90;;
8556;SDS011;4316;53.840;10.762;2023-06-22T04:39:09;3.50;;;2.60;;
8556;SDS011;4316;53.840;10.762;2023-06-22T04:41:36;2.73;;;2.53;;
8556;SDS011;4316;53.840;10.762;2023-06-22T04:44:11;2.33;;;2.23;;
8556;SDS011;4316;53.840;10.762;2023-06-22T04:46:38;3.67;;;2.97;;
8556;SDS011;4316;53.840;10.762;2023-06-22T04:49:07;2.80;;;2.60;;
8556;SDS011;4316;53.840;10.762;2023-06-22T04:51:41;2.83;;;2.63;;
8556;SDS011;4316;53.840;10.762;2023-06-22T04:54:08;4.57;;;2.90;;
8556;SDS011;4316;53.840;10.762;2023-06-22T04:56:34;3.10;;;2.67;;
8556;SDS011;4316;53.840;10.762;2023-06-22T04:59:01;2.55;;;2.45;;
8556;SDS011;4316;53.840;10.762;2023-06-22T05:01:28;3.03;;;2.70;;
8556;SDS011;4316;53.840;10.762;2023-06-22T05:03:53;3.42;;;2.90;;
8556;SDS011;4316;53.840;10.762;2023-06-22T05:06:23;4.57;;;3.20;;
8556;SDS011;4316;53.840;10.762;2023-06-22T05:08:53;4.97;;;3.85;;
8556;SDS011;4316;53.840;10.762;2023-06-22T05:11:29;5.18;;;3.80;;
8556;SDS011;4316;53.840;10.762;2023-06-22T05:13:54;4.43;;;3.42;;
8556;SDS011;4316;53.840;10.762;2023-06-22T05:16:20;3.88;;;3.42;;
8556;SDS011;4316;53.840;10.762;2023-06-22T05:18:52;3.20;;;2.90;;
8556;SDS011;4316;53.840;10.762;2023-06-22T05:21:23;3.90;;;3.35;;
8556;SDS011;4316;53.840;10.762;2023-06-22T05:23:50;3.65;;;3.30;;
8556;SDS011;4316;53.840;10.762;2023-06-22T05:26:17;5.97;;;4.35;;
8556;SDS011;4316;53.840;10.762;2023-06-22T05:28:43;7.45;;;3.60;;
8556;SDS011;4316;53.840;10.762;2023-06-22T05:31:11;5.45;;;3.78;;
8556;SDS011;4316;53.840;10.762;2023-06-22T05:33:38;5.35;;;3.50;;
8556;SDS011;4316;53.840;10.762;2023-06-22T05:36:04;8.23;;;4.32;;
8556;SDS011;4316;53.840;10.762;2023-06-22T05:38:30;3.38;;;3.15;;
8556;SDS011;4316;53.840;10.762;2023-06-22T05:40:56;4.22;;;3.83;;
8556;SDS011;4316;53.840;10.762;2023-06-22T05:43:21;4.45;;;4.05;;
8556;SDS011;4316;53.840;10.762;2023-06-22T05:45:47;5.25;;;3.85;;
8556;SDS011;4316;53.840;10.762;2023-06-22T05:48:13;7.32;;;4.13;;
8556;SDS011;4316;53.840;10.762;2023-06-22T05:50:38;7.28;;;4.88;;
8556;SDS011;4316;53.840;10.762;2023-06-22T05:53:04;4.68;;;4.15;;
8556;SDS011;4316;53.840;10.762;2023-06-22T05:55:31;6.93;;;4.47;;
8556;SDS011;4316;53.840;10.762;2023-06-22T05:57:57;4.60;;;3.80;;
8556;SDS011;4316;53.840;10.762;2023-06-22T06:00:23;5.47;;;3.97;;
8556;SDS011;4316;53.840;10.762;2023-06-22T06:02:49;6.50;;;4.03;;
8556;SDS011;4316;53.840;10.762;2023-06-22T06:05:14;4.43;;;3.88;;
8556;SDS011;4316;53.840;10.762;2023-06-22T06:07:41;5.95;;;3.92;;
8556;SDS011;4316;53.840;10.762;2023-06-22T06:10:07;4.40;;;3.28;;
8556;SDS011;4316;53.840;10.762;2023-06-22T06:12:34;4.45;;;3.53;;
8556;SDS011;4316;53.840;10.762;2023-06-22T06:14:59;6.82;;;4.18;;
8556;SDS011;4316;53.840;10.762;2023-06-22T06:17:25;7.00;;;4.43;;
8556;SDS011;4316;53.840;10.762;2023-06-22T06:19:51;5.55;;;3.88;;
8556;SDS011;4316;53.840;10.762;2023-06-22T06:22:16;5.95;;;3.75;;
8556;SDS011;4316;53.840;10.762;2023-06-22T06:24:43;5.28;;;3.60;;
8556;SDS011;4316;53.840;10.762;2023-06-22T06:27:09;5.53;;;4.03;;
8556;SDS011;4316;53.840;10.762;2023-06-22T06:29:35;6.15;;;4.30;;
8556;SDS011;4316;53.840;10.762;2023-06-22T06:32:00;7.85;;;4.13;;
8556;SDS011;4316;53.840;10.762;2023-06-22T06:34:26;6.60;;;4.00;;
8556;SDS011;4316;53.840;10.762;2023-06-22T06:36:51;10.02;;;3.80;;
8556;SDS011;4316;53.840;10.762;2023-06-22T06:39:17;5.72;;;3.75;;
8556;SDS011;4316;53.840;10.762;2023-06-22T06:41:43;5.05;;;3.40;;
8556;SDS011;4316;53.840;10.762;2023-06-22T06:44:14;7.60;;;3.92;;
8556;SDS011;4316;53.840;10.762;2023-06-22T06:46:39;5.38;;;3.70;;
8556;SDS011;4316;53.840;10.762;2023-06-22T06:49:06;3.75;;;3.17;;
8556;SDS011;4316;53.840;10.762;2023-06-22T06:51:32;4.70;;;3.20;;
8556;SDS011;4316;53.840;10.762;2023-06-22T06:53:58;5.78;;;3.30;;
8556;SDS011;4316;53.840;10.762;2023-06-22T06:56:23;6.88;;;3.45;;
8556;SDS011;4316;53.840;10.762;2023-06-22T06:58:49;6.20;;;3.00;;
8556;SDS011;4316;53.840;10.762;2023-06-22T07:01:16;5.63;;;3.60;;
8556;SDS011;4316;53.840;10.762;2023-06-22T07:03:41;2.10;;;1.95;;
8556;SDS011;4316;53.840;10.762;2023-06-22T07:06:08;4.22;;;1.98;;
8556;SDS011;4316;53.840;10.762;2023-06-22T07:08:34;4.65;;;2.17;;
8556;SDS011;4316;53.840;10.762;2023-06-22T07:11:01;2.78;;;2.05;;
8556;SDS011;4316;53.840;10.762;2023-06-22T07:13:27;8.88;;;1.83;;
8556;SDS011;4316;53.840;10.762;2023-06-22T07:15:53;5.63;;;1.98;;
8556;SDS011;4316;53.840;10.762;2023-06-22T07:18:18;3.45;;;1.83;;
8556;SDS011;4316;53.840;10.762;2023-06-22T07:20:44;3.30;;;2.20;;
8556;SDS011;4316;53.840;10.762;2023-06-22T07:23:09;3.17;;;2.03;;
8556;SDS011;4316;53.840;10.762;2023-06-22T07:25:35;5.20;;;2.33;;
8556;SDS011;4316;53.840;10.762;2023-06-22T07:28:05;12.07;;;2.25;;
8556;SDS011;4316;53.840;10.762;2023-06-22T07:30:31;4.43;;;2.25;;
8556;SDS011;4316;53.840;10.762;2023-06-22T07:32:58;4.18;;;2.05;;
8556;SDS011;4316;53.840;10.762;2023-06-22T07:35:28;1.88;;;1.75;;
8556;SDS011;4316;53.840;10.762;2023-06-22T07:37:57;2.10;;;1.70;;
8556;SDS011;4316;53.840;10.762;2023-06-22T07:40:22;2.33;;;1.63;;
8556;SDS011;4316;53.840;10.762;2023-06-22T07:42:48;3.85;;;2.20;;
8556;SDS011;4316;53.840;10.762;2023-06-22T07:45:16;2.55;;;1.92;;
8556;SDS011;4316;53.840;10.762;2023-06-22T07:47:42;2.83;;;2.20;;
8556;SDS011;4316;53.840;10.762;2023-06-22T07:50:08;2.15;;;1.73;;
8556;SDS011;4316;53.840;10.762;2023-06-22T07:52:34;2.40;;;2.20;;
8556;SDS011;4316;53.840;10.762;2023-06-22T07:54:59;4.07;;;1.98;;
8556;SDS011;4316;53.840;10.762;2023-06-22T07:57:25;3.88;;;2.08;;
8556;SDS011;4316;53.840;10.762;2023-06-22T07:59:57;2.85;;;2.00;;
8556;SDS011;4316;53.840;10.762;2023-06-22T08:02:24;3.25;;;2.53;;
8556;SDS011;4316;53.840;10.762;2023-06-22T08:04:49;2.65;;;2.40;;
8556;SDS011;4316;53.840;10.762;2023-06-22T08:07:15;2.83;;;2.00;;
8556;SDS011;4316;53.840;10.762;2023-06-22T08:09:45;2.33;;;2.15;;
8556;SDS011;4316;53.840;10.762;2023-06-22T08:12:11;2.55;;;1.88;;
8556;SDS011;4316;53.840;10.762;2023-06-22T08:14:38;5.05;;;2.22;;
8556;SDS011;4316;53.840;10.762;2023-06-22T08:17:04;2.65;;;2.00;;
8556;SDS011;4316;53.840;10.762;2023-06-22T08:19:29;2.05;;;1.88;;
8556;SDS011;4316;53.840;10.762;2023-06-22T08:21:56;2.70;;;2.13;;
8556;SDS011;4316;53.840;10.762;2023-06-22T08:24:22;4.40;;;2.08;;
8556;SDS011;4316;53.840;10.762;2023-06-22T08:26:49;3.45;;;2.00;;
8556;SDS011;4316;53.840;10.762;2023-06-22T08:29:16;2.35;;;1.85;;
8556;SDS011;4316;53.840;10.762;2023-06-22T08:31:42;4.82;;;1.90;;
8556;SDS011;4316;53.840;10.762;2023-06-22T08:34:07;2.05;;;1.85;;
8556;SDS011;4316;53.840;10.762;2023-06-22T08:36:33;1.75;;;1.60;;
8556;SDS011;4316;53.840;10.762;2023-06-22T08:39:02;3.47;;;2.08;;
8556;SDS011;4316;53.840;10.762;2023-06-22T08:41:28;2.45;;;1.95;;
8556;SDS011;4316;53.840;10.762;2023-06-22T08:43:54;2.20;;;1.90;;
8556;SDS011;4316;53.840;10.762;2023-06-22T08:46:20;3.38;;;1.60;;
8556;SDS011;4316;53.840;10.762;2023-06-22T08:48:49;1.67;;;1.58;;
8556;SDS011;4316;53.840;10.762;2023-06-22T08:51:15;1.40;;;1.33;;
8556;SDS011;4316;53.840;10.762;2023-06-22T08:53:42;5.88;;;2.00;;
8556;SDS011;4316;53.840;10.762;2023-06-22T08:56:08;1.70;;;1.60;;
8556;SDS011;4316;53.840;10.762;2023-06-22T08:58:33;2.40;;;1.63;;
8556;SDS011;4316;53.840;10.762;2023-06-22T09:00:59;1.63;;;1.52;;
8556;SDS011;4316;53.840;10.762;2023-06-22T09:03:26;2.63;;;1.90;;
8556;SDS011;4316;53.840;10.762;2023-06-22T09:05:52;4.00;;;1.80;;
8556;SDS011;4316;53.840;10.762;2023-06-22T09:08:17;3.72;;;1.90;;
8556;SDS011;4316;53.840;10.762;2023-06-22T09:10:43;2.47;;;1.52;;
8556;SDS011;4316;53.840;10.762;2023-06-22T09:13:08;1.95;;;1.83;;
8556;SDS011;4316;53.840;10.762;2023-06-22T09:15:34;3.92;;;1.50;;
8556;SDS011;4316;53.840;10.762;2023-06-22T09:17:59;2.42;;;1.70;;
8556;SDS011;4316;53.840;10.762;2023-06-22T09:20:25;3.25;;;1.95;;
8556;SDS011;4316;53.840;10.762;2023-06-22T09:22:51;2.20;;;2.00;;
8556;SDS011;4316;53.840;10.762;2023-06-22T09:25:16;5.85;;;1.70;;
8556;SDS011;4316;53.840;10.762;2023-06-22T09:27:45;2.28;;;1.98;;
8556;SDS011;4316;53.840;10.762;2023-06-22T09:30:11;2.35;;;1.50;;
8556;SDS011;4316;53.840;10.762;2023-06-22T09:32:37;4.05;;;1.80;;
8556;SDS011;4316;53.840;10.762;2023-06-22T09:35:03;1.90;;;1.65;;
8556;SDS011;4316;53.840;10.762;2023-06-22T09:37:33;6.38;;;1.55;;
8556;SDS011;4316;53.840;10.762;2023-06-22T09:39:59;1.92;;;1.75;;
8556;SDS011;4316;53.840;10.762;2023-06-22T09:42:25;2.08;;;1.50;;
8556;SDS011;4316;53.840;10.762;2023-06-22T09:44:50;2.60;;;1.60;;
8556;SDS011;4316;53.840;10.762;2023-06-22T09:47:16;1.80;;;1.70;;
8556;SDS011;4316;53.840;10.762;2023-06-22T09:49:41;2.33;;;1.67;;
8556;SDS011;4316;53.840;10.762;2023-06-22T09:52:07;2.75;;;1.95;;
8556;SDS011;4316;53.840;10.762;2023-06-22T09:54:33;3.22;;;1.50;;
8556;SDS011;4316;53.840;10.762;2023-06-22T09:56:58;2.55;;;1.85;;
8556;SDS011;4316;53.840;10.762;2023-06-22T09:59:24;2.38;;;2.05;;
8556;SDS011;4316;53.840;10.762;2023-06-22T10:01:49;1.60;;;1.50;;
8556;SDS011;4316;53.840;10.762;2023-06-22T10:04:15;2.10;;;1.90;;
8556;SDS011;4316;53.840;10.762;2023-06-22T10:06:41;1.88;;;1.77;;
8556;SDS011;4316;53.840;10.762;2023-06-22T10:09:07;1.55;;;1.45;;
8556;SDS011;4316;53.840;10.762;2023-06-22T10:11:33;2.72;;;1.70;;
8556;SDS011;4316;53.840;10.762;2023-06-22T10:14:00;3.10;;;1.60;;
8556;SDS011;4316;53.840;10.762;2023-06-22T10:16:30;2.75;;;1.70;;
8556;SDS011;4316;53.840;10.762;2023-06-22T10:18:56;1.98;;;1.75;;
8556;SDS011;4316;53.840;10.762;2023-06-22T10:21:22;2.00;;;1.80;;
8556;SDS011;4316;53.840;10.762;2023-06-22T10:23:47;3.15;;;2.33;;
8556;SDS011;4316;53.840;10.762;2023-06-22T10:26:13;2.42;;;2.10;;
8556;SDS011;4316;53.840;10.762;2023-06-22T10:28:39;2.10;;;1.75;;
8556;SDS011;4316;53.840;10.762;2023-06-22T10:31:04;2.63;;;2.20;;
8556;SDS011;4316;53.840;10.762;2023-06-22T10:33:30;2.92;;;1.92;;
8556;SDS011;4316;53.840;10.762;2023-06-22T10:35:55;3.60;;;2.25;;
8556;SDS011;4316;53.840;10.762;2023-06-22T10:38:21;3.50;;;2.15;;
8556;SDS011;4316;53.840;10.762;2023-06-22T10:40:46;2.50;;;1.85;;
8556;SDS011;4316;53.840;10.762;2023-06-22T10:43:12;2.78;;;2.25;;
8556;SDS011;4316;53.840;10.762;2023-06-22T10:45:38;3.30;;;2.25;;
8556;SDS011;4316;53.840;10.762;2023-06-22T10:48:03;2.92;;;2.05;;
8556;SDS011;4316;53.840;10.762;2023-06-22T10:50:29;2.45;;;1.90;;
8556;SDS011;4316;53.840;10.762;2023-06-22T10:52:55;2.13;;;1.90;;
8556;SDS011;4316;53.840;10.762;2023-06-22T10:55:20;2.25;;;1.67;;
8556;SDS011;4316;53.840;10.762;2023-06-22T10:57:46;5.45;;;2.10;;
8556;SDS011;4316;53.840;10.762;2023-06-22T11:00:12;2.28;;;1.83;;
8556;SDS011;4316;53.840;10.762;2023-06-22T11:02:39;2.10;;;1.83;;
8556;SDS011;4316;53.840;10.762;2023-06-22T11:05:05;2.90;;;1.65;;
8556;SDS011;4316;53.840;10.762;2023-06-22T11:07:31;3.80;;;2.25;;
8556;SDS011;4316;53.840;10.762;2023-06-22T11:09:57;3.58;;;1.98;;
8556;SDS011;4316;53.840;10.762;2023-06-22T11:12:23;3.17;;;1.90;;
8556;SDS011;4316;53.840;10.762;2023-06-22T11:14:49;2.88;;;1.90;;
8556;SDS011;4316;53.840;10.762;2023-06-22T11:17:16;2.03;;;1.60;;
8556;SDS011;4316;53.840;10.762;2023-06-22T11:19:43;1.80;;;1.60;;
8556;SDS011;4316;53.840;10.762;2023-06-22T11:22:09;4.45;;;2.08;;
8556;SDS011;4316;53.840;10.762;2023-06-22T11:24:35;2.42;;;1.80;;
8556;SDS011;4316;53.840;10.762;2023-06-22T11:27:01;2.50;;;1.60;;
8556;SDS011;4316;53.840;10.762;2023-06-22T11:29:26;1.70;;;1.60;;
8556;SDS011;4316;53.840;10.762;2023-06-22T11:31:52;1.95;;;1.77;;
8556;SDS011;4316;53.840;10.762;2023-06-22T11:34:17;2.85;;;2.00;;
8556;SDS011;4316;53.840;10.762;2023-06-22T11:36:44;2.35;;;1.85;;
8556;SDS011;4316;53.840;10.762;2023-06-22T11:39:10;1.92;;;1.80;;
8556;SDS011;4316;53.840;10.762;2023-06-22T11:41:36;2.63;;;2.00;;
8556;SDS011;4316;53.840;10.762;2023-06-22T11:44:03;5.35;;;2.08;;
8556;SDS011;4316;53.840;10.762;2023-06-22T11:46:29;5.95;;;2.03;;
8556;SDS011;4316;53.840;10.762;2023-06-22T11:48:55;1.88;;;1.77;;
8556;SDS011;4316;53.840;10.762;2023-06-22T11:51:20;2.75;;;1.52;;
8556;SDS011;4316;53.840;10.762;2023-06-22T11:53:46;1.85;;;1.75;;
8556;SDS011;4316;53.840;10.762;2023-06-22T11:56:11;2.42;;;1.90;;
8556;SDS011;4316;53.840;10.762;2023-06-22T11:58:37;4.53;;;1.60;;
8556;SDS011;4316;53.840;10.762;2023-06-22T12:01:03;3.08;;;1.80;;
8556;SDS011;4316;53.840;10.762;2023-06-22T12:03:28;8.73;;;1.80;;
8556;SDS011;4316;53.840;10.762;2023-06-22T12:05:55;8.32;;;2.05;;
8556;SDS011;4316;53.840;10.762;2023-06-22T12:08:20;2.90;;;1.80;;
8556;SDS011;4316;53.840;10.762;2023-06-22T12:10:46;2.35;;;1.70;;
8556;SDS011;4316;53.840;10.762;2023-06-22T12:13:12;2.72;;;1.90;;
8556;SDS011;4316;53.840;10.762;2023-06-22T12:15:37;1.98;;;1.88;;
8556;SDS011;4316;53.840;10.762;2023-06-22T12:18:03;1.80;;;1.50;;
8556;SDS011;4316;53.840;10.762;2023-06-22T12:20:29;2.53;;;1.73;;
8556;SDS011;4316;53.840;10.762;2023-06-22T12:22:54;2.45;;;2.00;;
8556;SDS011;4316;53.840;10.762;2023-06-22T12:25:23;1.95;;;1.80;;
8556;SDS011;4316;53.840;10.762;2023-06-22T12:27:48;3.03;;;1.60;;
8556;SDS011;4316;53.840;10.762;2023-06-22T12:30:15;4.70;;;1.98;;
8556;SDS011;4316;53.840;10.762;2023-06-22T12:32:41;4.15;;;1.90;;
8556;SDS011;4316;53.840;10.762;2023-06-22T12:35:07;1.50;;;1.40;;
8556;SDS011;4316;53.840;10.762;2023-06-22T12:37:37;4.32;;;1.73;;
8556;SDS011;4316;53.840;10.762;2023-06-22T12:40:02;1.77;;;1.67;;
8556;SDS011;4316;53.840;10.762;2023-06-22T12:42:29;3.92;;;2.00;;
8556;SDS011;4316;53.840;10.762;2023-06-22T12:44:54;2.08;;;1.80;;
8556;SDS011;4316;53.840;10.762;2023-06-22T12:47:20;4.20;;;2.08;;
8556;SDS011;4316;53.840;10.762;2023-06-22T12:49:45;4.68;;;1.33;;
8556;SDS011;4316;53.840;10.762;2023-06-22T12:52:11;4.28;;;2.00;;
8556;SDS011;4316;53.840;10.762;2023-06-22T12:54:36;3.33;;;2.00;;
8556;SDS011;4316;53.840;10.762;2023-06-22T12:57:02;1.75;;;1.65;;
8556;SDS011;4316;53.840;10.762;2023-06-22T12:59:28;3.28;;;1.70;;
8556;SDS011;4316;53.840;10.762;2023-06-22T13:01:53;1.90;;;1.58;;
8556;SDS011;4316;53.840;10.762;2023-06-22T13:04:20;1.75;;;1.60;;
8556;SDS011;4316;53.840;10.762;2023-06-22T13:06:46;7.80;;;2.50;;
8556;SDS011;4316;53.840;10.762;2023-06-22T13:09:13;1.73;;;1.58;;
8556;SDS011;4316;53.840;10.762;2023-06-22T13:11:39;1.67;;;1.58;;
8556;SDS011;4316;53.840;10.762;2023-06-22T13:14:05;2.10;;;1.42;;
8556;SDS011;4316;53.840;10.762;2023-06-22T13:16:30;2.88;;;1.70;;
8556;SDS011;4316;53.840;10.762;2023-06-22T13:18:56;2.38;;;1.92;;
8556;SDS011;4316;53.840;10.762;2023-06-22T13:21:21;1.60;;;1.50;;
8556;SDS011;4316;53.840;10.762;2023-06-22T13:23:47;2.38;;;2.03;;
8556;SDS011;4316;53.840;10.762;2023-06-22T13:26:13;2.35;;;1.50;;
8556;SDS011;4316;53.840;10.762;2023-06-22T13:28:38;8.50;;;1.70;;
8556;SDS011;4316;53.840;10.762;2023-06-22T13:31:04;2.05;;;1.85;;
8556;SDS011;4316;53.840;10.762;2023-06-22T13:33:29;4.90;;;1.70;;
8556;SDS011;4316;53.840;10.762;2023-06-22T13:35:55;4.22;;;1.55;;
8556;SDS011;4316;53.840;10.762;2023-06-22T13:38:20;3.13;;;1.80;;
8556;SDS011;4316;53.840;10.762;2023-06-22T13:40:47;1.88;;;1.77;;
8556;SDS011;4316;53.840;10.762;2023-06-22T13:43:13;4.85;;;2.13;;
8556;SDS011;4316;53.840;10.762;2023-06-22T13:45:38;4.03;;;1.85;;
8556;SDS011;4316;53.840;10.762;2023-06-22T13:48:04;1.90;;;1.80;;
8556;SDS011;4316;53.840;10.762;2023-06-22T13:50:30;3.42;;;2.10;;
8556;SDS011;4316;53.840;10.762;2023-06-22T13:52:56;2.30;;;2.00;;
8556;SDS011;4316;53.840;10.762;2023-06-22T13:55:21;5.43;;;1.80;;
8556;SDS011;4316;53.840;10.762;2023-06-22T13:57:48;5.72;;;1.58;;
8556;SDS011;4316;53.840;10.762;2023-06-22T14:00:14;1.80;;;1.70;;
8556;SDS011;4316;53.840;10.762;2023-06-22T14:02:39;10.23;;;1.73;;
8556;SDS011;4316;53.840;10.762;2023-06-22T14:05:06;8.70;;;1.90;;
8556;SDS011;4316;53.840;10.762;2023-06-22T14:07:32;2.40;;;1.73;;
8556;SDS011;4316;53.840;10.762;2023-06-22T14:09:58;4.22;;;1.60;;
8556;SDS011;4316;53.840;10.762;2023-06-22T14:12:24;1.90;;;1.70;;
8556;SDS011;4316;53.840;10.762;2023-06-22T14:14:50;2.17;;;2.00;;
8556;SDS011;4316;53.840;10.762;2023-06-22T14:17:15;1.95;;;1.58;;
8556;SDS011;4316;53.840;10.762;2023-06-22T14:19:41;1.77;;;1.58;;
8556;SDS011;4316;53.840;10.762;2023-06-22T14:22:06;4.10;;;1.83;;
8556;SDS011;4316;53.840;10.762;2023-06-22T14:24:32;1.75;;;1.65;;
8556;SDS011;4316;53.840;10.762;2023-06-22T14:26:57;3.42;;;2.03;;
8556;SDS011;4316;53.840;10.762;2023-06-22T14:29:23;7.32;;;1.65;;
8556;SDS011;4316;53.840;10.762;2023-06-22T14:31:50;2.58;;;2.00;;
8556;SDS011;4316;53.840;10.762;2023-06-22T14:34:15;1.73;;;1.63;;
8556;SDS011;4316;53.840;10.762;2023-06-22T14:36:41;5.35;;;1.90;;
8556;SDS011;4316;53.840;10.762;2023-06-22T14:39:08;2.15;;;1.90;;
8556;SDS011;4316;53.840;10.762;2023-06-22T14:41:34;2.53;;;1.90;;
8556;SDS011;4316;53.840;10.762;2023-06-22T14:43:59;1.85;;;1.63;;
8556;SDS011;4316;53.840;10.762;2023-06-22T14:46:25;1.60;;;1.50;;
8556;SDS011;4316;53.840;10.762;2023-06-22T14:48:52;3.03;;;1.65;;
8556;SDS011;4316;53.840;10.762;2023-06-22T14:51:18;2.30;;;1.73;;
8556;SDS011;4316;53.840;10.762;2023-06-22T14:53:44;5.60;;;1.65;;
8556;SDS011;4316;53.840;10.762;2023-06-22T14:56:10;3.47;;;1.98;;
8556;SDS011;4316;53.840;10.762;2023-06-22T14:58:35;2.85;;;1.65;;
8556;SDS011;4316;53.840;10.762;2023-06-22T15:01:01;3.80;;;1.60;;
8556;SDS011;4316;53.840;10.762;2023-06-22T15:03:28;4.20;;;1.58;;